AirNav   Everest Fuels
 
 917 users online  

AZ73 Tempe St Lukes Hospital Heliport
Tempe, Arizona, USA

GOING TO TEMPE?


FAA INFORMATION EFFECTIVE 08 SEPTEMBER 2022

Location

FAA Identifier: AZ73
Lat/Long: 33-24-47.1800N 111-56-27.4600W
33-24.786333N 111-56.457667W
33.4131056,-111.9409611
(estimated)
Elevation: 1160 ft. / 354 m (estimated)
Variation: 13E (1985)
From city: 1 mile S of TEMPE, AZ
Time zone: UTC -7 (year round; does not observe DST)
Zip code: 85281

Heliport Operations

Heliport use: Private use, MEDICAL.
Activation date: 11/1983
Control tower: no
ARTCC: ALBUQUERQUE CENTER
FSS: PRESCOTT FLIGHT SERVICE STATION
Attendance: CONTINUOUS
Segmented circle: no

Heliport Communications

WX ASOS at PHX (4 nm W): PHONE 602-231-8557
WX AWOS-3PT at CHD (11 nm SE): PHONE 480-814-9952
WX ASOS at FFZ (11 nm E): PHONE 480-641-4111
WX ASOS at SDL (13 nm N): PHONE 480-483-3049
WX AWOS-3 at IWA (16 nm SE): 133.5 (480-988-9428)
WX ASOS at DVT (18 nm NW): 126.5 (623-587-7764)
WX AWOS-3 at GEU (19 nm W): PHONE 623-877-8609

Nearby radio navigation aids

VOR radial/distance  VOR name  Freq  Var
PXRr117/1.9PHOENIX VORTAC115.6012E
IWAr281/15.9WILLIE VORTAC113.3013E
TFDr345/31.7STANFIELD VORTAC114.8012E

Heliport Services

Runway Information

Helipad H1

Dimensions: 40 x 40 ft. / 12 x 12 m
Surface: asphalt
Latitude: 33-24.786333N
Longitude: 111-56.457667W
Elevation: 1160.0 ft.
Traffic pattern: leftleft

Heliport Ownership and Management from official FAA records

Ownership: Privately-owned
Owner: TEMPE ST. LUKE'S HOSPITAL
1500 SOUTH MILL AVE.
TEMPE, AZ 85281
Phone 602-968-9411
Manager: DANNY HUERTA
1500 SOUTH MILL AVE.
TEMPE, AZ 85281
Phone 602-251-8494

Additional Remarks

A52-H1 14' BLDG 120' SOUTH; 12' BLDG 85' NORTH; 10' BLDG 120' WEST; 14' BLDG 120' NE.
FOR CD CTC PHOENIX APCH AT 602-306-2565.

Instrument Procedures

There are no published instrument procedures at AZ73.

Some nearby airports with instrument procedures:

KPHX - Phoenix Sky Harbor International Airport (4 nm W)
P19 - Stellar Airpark (7 nm S)
KCHD - Chandler Municipal Airport (11 nm SE)
KFFZ - Falcon Field Airport (11 nm E)
KSDL - Scottsdale Airport (13 nm N)
KIWA - Phoenix-Mesa Gateway Airport (16 nm SE)
KDVT - Phoenix Deer Valley Airport (18 nm NW)
KGEU - Glendale Municipal Airport (19 nm W)
 
Loc | Ops | Rwys | IFR | FBO | Links
Com | Nav | Svcs | Stats | Notes
Area around AZ73 (Tempe St Lukes Hospital Heliport)
 
Road maps at: MapQuest Bing Google
 
Aerial photo
No photo
 
Sectional chart

 
Airport distance calculator
Flying to Tempe St Lukes Hospital Heliport? Find the distance to fly.

From to AZ73

Sunrise and sunset
Times for 02-Oct-2022
 Local
(UTC-7)
 Zulu
(UTC)
Morning civil twilight05:5912:59
Sunrise06:2413:24
Sunset18:1001:10
Evening civil twilight18:3501:35

Current date and time
Zulu (UTC)  02-Oct-2022 22:59:05
Local (UTC-7)  02-Oct-2022 15:59:05
 
METAR
KPHX 
6nm W 
022251Z VRB03KT 10SM FEW100 SCT250 36/11 A2981 RMK AO2 SLP074 CB DSNT NW-N TCU DSNT SE T03560111 $
KCHD 
11nm SE 
022247Z 22008KT 10SM FEW100 35/10 A2984
KFFZ 
12nm E 
022154Z AUTO 21011G17KT 10SM CLR 35/11 A2985 RMK AO2 SLP083 T03500106
KSDL 
12nm N 
022253Z 18007KT 150V220 10SM CLR 34/11 A2986 RMK AO2 SLP084 T03440106
KIWA 
16nm SE 
022250Z 28006KT 10SM CLR 34/11 A2985
KDVT 
17nm N 
022253Z 21005KT 10SM CLR 34/11 A2985 RMK AO2 SLP082 T03390111
KGEU 
19nm W 
022158Z VRB04KT 10SM SCT100 35/12 A2983
TAF
KPHX 
6nm W 
022102Z 0221/0324 16007KT P6SM FEW100 FEW150 FM022200 21007KT P6SM FEW100 FEW150 FM030000 25006KT P6SM FEW100 FEW150 FM030400 10005KT P6SM FEW100 SCT150 SCT250 FM031700 14008KT P6SM FEW100 FEW150 FM032100 28008KT P6SM FEW100 FEW150
KSDL 
12nm N 
021720Z 0218/0318 VRB04KT P6SM FEW100 FEW150 FM022100 21007KT P6SM FEW100 FEW150 FM030300 04005KT P6SM FEW100 SCT150 SCT250 FM030800 VRB03KT P6SM FEW100 FEW150
KIWA 
16nm SE 
021720Z 0218/0318 18008KT P6SM FEW100 FEW150 FM022200 22007KT P6SM FEW100 FEW150 FM030000 26006KT P6SM FEW100 FEW150 FM030300 07005KT P6SM FEW100 SCT150 SCT250 FM030500 13008KT P6SM FEW100 FEW150
KDVT 
17nm N 
021720Z 0218/0318 18008KT P6SM FEW100 FEW150 FM022200 23009KT P6SM FEW100 FEW150 FM030400 03008KT P6SM FEW100 SCT150 SCT250 FM030900 VRB04KT P6SM FEW100 FEW150
NOTAMs
Click for the latest NOTAMs
NOTAMs are issued by the DoD/FAA and will open in a separate window not controlled by AirNav.

 

 
 

Would you like to see your business listed on this page?

 If your business provides an interesting product or service to pilots, flight crews, aircraft, or users of the Tempe St Lukes Hospital Heliport, you should consider listing it here.  To start the listing process, click on the button below
 
Add a business
 

Other Pages about Tempe St Lukes Hospital Heliport

Update a link
 
Copyright © AirNav, LLC. All rights reserved. Privacy Policy  Contact